sensor_id;sensor_type;location;lat;lon;timestamp;P1;durP1;ratioP1;P2;durP2;ratioP2
64795;SDS011;51229;51.980;6.722;2023-05-17T00:00:51;6.68;;;2.92;;
64795;SDS011;51229;51.980;6.722;2023-05-17T00:03:17;6.22;;;2.42;;
64795;SDS011;51229;51.980;6.722;2023-05-17T00:05:43;8.25;;;3.10;;
64795;SDS011;51229;51.980;6.722;2023-05-17T00:08:09;6.10;;;2.70;;
64795;SDS011;51229;51.980;6.722;2023-05-17T00:10:35;10.20;;;3.20;;
64795;SDS011;51229;51.980;6.722;2023-05-17T00:13:01;7.00;;;2.95;;
64795;SDS011;51229;51.980;6.722;2023-05-17T00:15:27;6.65;;;2.33;;
64795;SDS011;51229;51.980;6.722;2023-05-17T00:17:53;6.90;;;2.75;;
64795;SDS011;51229;51.980;6.722;2023-05-17T00:20:19;6.85;;;2.72;;
64795;SDS011;51229;51.980;6.722;2023-05-17T00:22:45;8.60;;;2.90;;
64795;SDS011;51229;51.980;6.722;2023-05-17T00:25:11;7.57;;;2.85;;
64795;SDS011;51229;51.980;6.722;2023-05-17T00:27:37;5.90;;;2.55;;
64795;SDS011;51229;51.980;6.722;2023-05-17T00:30:03;9.10;;;2.92;;
64795;SDS011;51229;51.980;6.722;2023-05-17T00:32:30;9.40;;;3.15;;
64795;SDS011;51229;51.980;6.722;2023-05-17T00:34:55;5.97;;;2.90;;
64795;SDS011;51229;51.980;6.722;2023-05-17T00:37:21;8.07;;;2.80;;
64795;SDS011;51229;51.980;6.722;2023-05-17T00:39:47;6.32;;;2.95;;
64795;SDS011;51229;51.980;6.722;2023-05-17T00:42:13;8.68;;;3.08;;
64795;SDS011;51229;51.980;6.722;2023-05-17T00:44:40;7.40;;;2.45;;
64795;SDS011;51229;51.980;6.722;2023-05-17T00:47:05;9.60;;;3.00;;
64795;SDS011;51229;51.980;6.722;2023-05-17T00:49:31;9.13;;;2.97;;
64795;SDS011;51229;51.980;6.722;2023-05-17T00:51:58;7.40;;;2.83;;
64795;SDS011;51229;51.980;6.722;2023-05-17T00:54:24;8.55;;;2.97;;
64795;SDS011;51229;51.980;6.722;2023-05-17T00:56:51;9.85;;;3.95;;
64795;SDS011;51229;51.980;6.722;2023-05-17T00:59:17;8.63;;;2.70;;
64795;SDS011;51229;51.980;6.722;2023-05-17T01:01:43;8.38;;;3.05;;
64795;SDS011;51229;51.980;6.722;2023-05-17T01:04:10;9.98;;;3.05;;
64795;SDS011;51229;51.980;6.722;2023-05-17T01:06:36;12.25;;;3.33;;
64795;SDS011;51229;51.980;6.722;2023-05-17T01:09:04;7.93;;;2.97;;
64795;SDS011;51229;51.980;6.722;2023-05-17T01:14:23;8.35;;;3.28;;
64795;SDS011;51229;51.980;6.722;2023-05-17T01:16:55;8.63;;;2.83;;
64795;SDS011;51229;51.980;6.722;2023-05-17T01:27:53;9.18;;;3.15;;
64795;SDS011;51229;51.980;6.722;2023-05-17T01:30:23;8.27;;;3.40;;
64795;SDS011;51229;51.980;6.722;2023-05-17T01:32:50;10.02;;;3.13;;
64795;SDS011;51229;51.980;6.722;2023-05-17T01:35:19;9.43;;;3.35;;
64795;SDS011;51229;51.980;6.722;2023-05-17T01:37:44;9.57;;;3.20;;
64795;SDS011;51229;51.980;6.722;2023-05-17T01:40:10;9.15;;;3.25;;
64795;SDS011;51229;51.980;6.722;2023-05-17T01:42:37;11.63;;;3.42;;
64795;SDS011;51229;51.980;6.722;2023-05-17T01:45:17;10.05;;;3.05;;
64795;SDS011;51229;51.980;6.722;2023-05-17T01:47:59;8.98;;;2.85;;
64795;SDS011;51229;51.980;6.722;2023-05-17T01:50:36;11.18;;;3.30;;
64795;SDS011;51229;51.980;6.722;2023-05-17T01:53:10;12.35;;;3.85;;
64795;SDS011;51229;51.980;6.722;2023-05-17T01:55:50;9.27;;;2.72;;
64795;SDS011;51229;51.980;6.722;2023-05-17T01:58:24;10.18;;;3.10;;
64795;SDS011;51229;51.980;6.722;2023-05-17T02:00:51;10.45;;;3.20;;
64795;SDS011;51229;51.980;6.722;2023-05-17T02:03:19;7.72;;;2.97;;
64795;SDS011;51229;51.980;6.722;2023-05-17T02:05:50;9.68;;;3.08;;
64795;SDS011;51229;51.980;6.722;2023-05-17T02:08:16;10.90;;;3.10;;
64795;SDS011;51229;51.980;6.722;2023-05-17T02:10:42;8.93;;;3.33;;
64795;SDS011;51229;51.980;6.722;2023-05-17T02:13:07;10.20;;;3.13;;
64795;SDS011;51229;51.980;6.722;2023-05-17T02:15:33;7.25;;;2.75;;
64795;SDS011;51229;51.980;6.722;2023-05-17T02:17:59;13.18;;;3.58;;
64795;SDS011;51229;51.980;6.722;2023-05-17T02:20:25;11.55;;;3.47;;
64795;SDS011;51229;51.980;6.722;2023-05-17T02:22:50;14.25;;;3.60;;
64795;SDS011;51229;51.980;6.722;2023-05-17T02:25:17;9.25;;;2.92;;
64795;SDS011;51229;51.980;6.722;2023-05-17T02:27:43;12.27;;;3.25;;
64795;SDS011;51229;51.980;6.722;2023-05-17T02:30:08;10.57;;;2.83;;
64795;SDS011;51229;51.980;6.722;2023-05-17T02:32:34;12.90;;;3.78;;
64795;SDS011;51229;51.980;6.722;2023-05-17T02:35:00;12.38;;;3.35;;
64795;SDS011;51229;51.980;6.722;2023-05-17T02:37:25;10.02;;;2.78;;
64795;SDS011;51229;51.980;6.722;2023-05-17T02:39:51;11.57;;;2.55;;
64795;SDS011;51229;51.980;6.722;2023-05-17T02:42:17;11.25;;;3.00;;
64795;SDS011;51229;51.980;6.722;2023-05-17T02:44:42;11.18;;;3.28;;
64795;SDS011;51229;51.980;6.722;2023-05-17T02:47:08;12.85;;;3.83;;
64795;SDS011;51229;51.980;6.722;2023-05-17T02:49:34;9.90;;;3.00;;
64795;SDS011;51229;51.980;6.722;2023-05-17T02:51:59;9.90;;;2.70;;
64795;SDS011;51229;51.980;6.722;2023-05-17T02:54:26;10.25;;;3.00;;
64795;SDS011;51229;51.980;6.722;2023-05-17T02:56:52;8.43;;;3.22;;
64795;SDS011;51229;51.980;6.722;2023-05-17T02:59:18;8.60;;;3.22;;
64795;SDS011;51229;51.980;6.722;2023-05-17T03:01:44;10.57;;;3.97;;
64795;SDS011;51229;51.980;6.722;2023-05-17T03:04:09;9.25;;;3.40;;
64795;SDS011;51229;51.980;6.722;2023-05-17T03:06:36;9.57;;;3.30;;
64795;SDS011;51229;51.980;6.722;2023-05-17T03:09:02;12.55;;;3.28;;
64795;SDS011;51229;51.980;6.722;2023-05-17T03:11:28;11.70;;;3.55;;
64795;SDS011;51229;51.980;6.722;2023-05-17T03:13:55;8.75;;;2.88;;
64795;SDS011;51229;51.980;6.722;2023-05-17T03:16:24;10.48;;;3.85;;
64795;SDS011;51229;51.980;6.722;2023-05-17T03:18:51;11.43;;;3.67;;
64795;SDS011;51229;51.980;6.722;2023-05-17T03:21:16;10.23;;;3.20;;
64795;SDS011;51229;51.980;6.722;2023-05-17T03:23:42;9.35;;;3.38;;
64795;SDS011;51229;51.980;6.722;2023-05-17T03:26:08;9.35;;;3.53;;
64795;SDS011;51229;51.980;6.722;2023-05-17T03:28:40;10.30;;;3.47;;
64795;SDS011;51229;51.980;6.722;2023-05-17T03:31:06;9.45;;;3.35;;
64795;SDS011;51229;51.980;6.722;2023-05-17T03:33:33;10.20;;;3.40;;
64795;SDS011;51229;51.980;6.722;2023-05-17T03:35:59;10.88;;;3.88;;
64795;SDS011;51229;51.980;6.722;2023-05-17T03:38:25;10.82;;;3.10;;
64795;SDS011;51229;51.980;6.722;2023-05-17T03:40:51;9.18;;;3.35;;
64795;SDS011;51229;51.980;6.722;2023-05-17T03:43:17;6.93;;;2.83;;
64795;SDS011;51229;51.980;6.722;2023-05-17T03:45:44;12.60;;;4.25;;
64795;SDS011;51229;51.980;6.722;2023-05-17T03:48:10;10.35;;;4.00;;
64795;SDS011;51229;51.980;6.722;2023-05-17T03:50:36;8.65;;;2.97;;
64795;SDS011;51229;51.980;6.722;2023-05-17T03:53:03;6.30;;;2.40;;
64795;SDS011;51229;51.980;6.722;2023-05-17T03:55:29;9.73;;;3.45;;
64795;SDS011;51229;51.980;6.722;2023-05-17T03:57:55;11.68;;;3.28;;
64795;SDS011;51229;51.980;6.722;2023-05-17T04:00:22;10.57;;;3.25;;
64795;SDS011;51229;51.980;6.722;2023-05-17T04:02:51;10.13;;;3.50;;
64795;SDS011;51229;51.980;6.722;2023-05-17T04:05:17;10.20;;;3.78;;
64795;SDS011;51229;51.980;6.722;2023-05-17T04:07:45;12.48;;;3.95;;
64795;SDS011;51229;51.980;6.722;2023-05-17T04:10:11;11.45;;;3.47;;
64795;SDS011;51229;51.980;6.722;2023-05-17T04:12:37;9.40;;;3.40;;
64795;SDS011;51229;51.980;6.722;2023-05-17T04:15:03;9.55;;;3.78;;
64795;SDS011;51229;51.980;6.722;2023-05-17T04:17:30;12.93;;;3.50;;
64795;SDS011;51229;51.980;6.722;2023-05-17T04:19:56;12.43;;;3.78;;
64795;SDS011;51229;51.980;6.722;2023-05-17T04:22:22;9.20;;;3.25;;
64795;SDS011;51229;51.980;6.722;2023-05-17T04:24:48;11.68;;;3.78;;
64795;SDS011;51229;51.980;6.722;2023-05-17T04:27:15;10.02;;;3.42;;
64795;SDS011;51229;51.980;6.722;2023-05-17T04:29:41;12.10;;;3.72;;
64795;SDS011;51229;51.980;6.722;2023-05-17T04:32:07;12.30;;;3.78;;
64795;SDS011;51229;51.980;6.722;2023-05-17T04:34:34;12.32;;;3.70;;
64795;SDS011;51229;51.980;6.722;2023-05-17T04:37:01;12.77;;;3.88;;
64795;SDS011;51229;51.980;6.722;2023-05-17T04:39:27;11.95;;;3.70;;
64795;SDS011;51229;51.980;6.722;2023-05-17T04:41:53;8.60;;;3.35;;
64795;SDS011;51229;51.980;6.722;2023-05-17T04:44:19;12.48;;;4.20;;
64795;SDS011;51229;51.980;6.722;2023-05-17T04:46:45;11.90;;;3.40;;
64795;SDS011;51229;51.980;6.722;2023-05-17T04:49:11;11.05;;;3.50;;
64795;SDS011;51229;51.980;6.722;2023-05-17T04:51:39;9.90;;;3.72;;
64795;SDS011;51229;51.980;6.722;2023-05-17T04:54:05;11.35;;;4.20;;
64795;SDS011;51229;51.980;6.722;2023-05-17T04:56:34;10.32;;;3.65;;
64795;SDS011;51229;51.980;6.722;2023-05-17T04:59:02;9.73;;;3.42;;
64795;SDS011;51229;51.980;6.722;2023-05-17T05:01:28;13.27;;;3.53;;
64795;SDS011;51229;51.980;6.722;2023-05-17T05:03:57;11.98;;;3.97;;
64795;SDS011;51229;51.980;6.722;2023-05-17T05:06:23;16.15;;;3.97;;
64795;SDS011;51229;51.980;6.722;2023-05-17T05:08:49;9.90;;;4.18;;
64795;SDS011;51229;51.980;6.722;2023-05-17T05:11:15;14.43;;;3.78;;
64795;SDS011;51229;51.980;6.722;2023-05-17T05:13:41;10.60;;;3.78;;
64795;SDS011;51229;51.980;6.722;2023-05-17T05:16:06;9.98;;;3.33;;
64795;SDS011;51229;51.980;6.722;2023-05-17T05:18:33;12.35;;;3.95;;
64795;SDS011;51229;51.980;6.722;2023-05-17T05:20:59;10.52;;;3.42;;
64795;SDS011;51229;51.980;6.722;2023-05-17T05:23:25;11.38;;;3.97;;
64795;SDS011;51229;51.980;6.722;2023-05-17T05:25:51;15.00;;;3.65;;
64795;SDS011;51229;51.980;6.722;2023-05-17T05:28:17;12.52;;;3.80;;
64795;SDS011;51229;51.980;6.722;2023-05-17T05:30:43;13.20;;;3.10;;
64795;SDS011;51229;51.980;6.722;2023-05-17T05:33:10;11.73;;;3.03;;
64795;SDS011;51229;51.980;6.722;2023-05-17T05:35:37;10.95;;;3.00;;
64795;SDS011;51229;51.980;6.722;2023-05-17T05:38:02;10.20;;;3.22;;
64795;SDS011;51229;51.980;6.722;2023-05-17T05:40:28;11.10;;;3.13;;
64795;SDS011;51229;51.980;6.722;2023-05-17T05:42:54;12.00;;;2.75;;
64795;SDS011;51229;51.980;6.722;2023-05-17T05:45:20;11.77;;;3.03;;
64795;SDS011;51229;51.980;6.722;2023-05-17T05:47:47;11.23;;;3.20;;
64795;SDS011;51229;51.980;6.722;2023-05-17T05:50:13;13.27;;;3.00;;
64795;SDS011;51229;51.980;6.722;2023-05-17T05:52:40;9.45;;;2.38;;
64795;SDS011;51229;51.980;6.722;2023-05-17T05:55:06;10.02;;;2.40;;
64795;SDS011;51229;51.980;6.722;2023-05-17T05:57:32;8.68;;;2.05;;
64795;SDS011;51229;51.980;6.722;2023-05-17T05:59:58;8.90;;;2.15;;
64795;SDS011;51229;51.980;6.722;2023-05-17T06:02:24;12.15;;;2.65;;
64795;SDS011;51229;51.980;6.722;2023-05-17T06:04:50;9.32;;;2.50;;
64795;SDS011;51229;51.980;6.722;2023-05-17T06:07:16;14.65;;;2.17;;
64795;SDS011;51229;51.980;6.722;2023-05-17T06:09:42;9.38;;;1.88;;
64795;SDS011;51229;51.980;6.722;2023-05-17T06:12:07;15.23;;;2.47;;
64795;SDS011;51229;51.980;6.722;2023-05-17T06:14:33;8.20;;;2.38;;
64795;SDS011;51229;51.980;6.722;2023-05-17T06:17:01;8.98;;;2.20;;
64795;SDS011;51229;51.980;6.722;2023-05-17T06:19:27;9.35;;;2.22;;
64795;SDS011;51229;51.980;6.722;2023-05-17T06:21:52;8.40;;;2.22;;
64795;SDS011;51229;51.980;6.722;2023-05-17T06:24:18;8.57;;;2.17;;
64795;SDS011;51229;51.980;6.722;2023-05-17T06:26:43;10.25;;;2.33;;
64795;SDS011;51229;51.980;6.722;2023-05-17T06:29:11;12.88;;;2.05;;
64795;SDS011;51229;51.980;6.722;2023-05-17T06:31:36;14.02;;;2.22;;
64795;SDS011;51229;51.980;6.722;2023-05-17T06:34:02;7.75;;;2.05;;
64795;SDS011;51229;51.980;6.722;2023-05-17T06:36:28;10.32;;;2.03;;
64795;SDS011;51229;51.980;6.722;2023-05-17T06:38:53;10.93;;;2.63;;
64795;SDS011;51229;51.980;6.722;2023-05-17T06:41:19;8.90;;;2.17;;
64795;SDS011;51229;51.980;6.722;2023-05-17T06:43:45;10.48;;;2.60;;
64795;SDS011;51229;51.980;6.722;2023-05-17T06:46:11;9.63;;;2.65;;
64795;SDS011;51229;51.980;6.722;2023-05-17T06:48:36;7.72;;;2.05;;
64795;SDS011;51229;51.980;6.722;2023-05-17T06:51:02;10.57;;;2.00;;
64795;SDS011;51229;51.980;6.722;2023-05-17T06:53:28;7.00;;;1.77;;
64795;SDS011;51229;51.980;6.722;2023-05-17T06:55:54;10.82;;;1.90;;
64795;SDS011;51229;51.980;6.722;2023-05-17T06:58:19;7.85;;;1.88;;
64795;SDS011;51229;51.980;6.722;2023-05-17T07:00:45;8.02;;;1.80;;
64795;SDS011;51229;51.980;6.722;2023-05-17T07:03:10;9.90;;;1.90;;
64795;SDS011;51229;51.980;6.722;2023-05-17T07:05:36;11.25;;;2.03;;
64795;SDS011;51229;51.980;6.722;2023-05-17T07:08:02;12.65;;;2.25;;
64795;SDS011;51229;51.980;6.722;2023-05-17T07:10:27;7.97;;;1.67;;
64795;SDS011;51229;51.980;6.722;2023-05-17T07:12:53;11.68;;;2.22;;
64795;SDS011;51229;51.980;6.722;2023-05-17T07:15:19;7.00;;;1.92;;
64795;SDS011;51229;51.980;6.722;2023-05-17T07:17:45;7.50;;;1.85;;
64795;SDS011;51229;51.980;6.722;2023-05-17T07:20:10;7.38;;;2.20;;
64795;SDS011;51229;51.980;6.722;2023-05-17T07:22:36;8.95;;;2.05;;
64795;SDS011;51229;51.980;6.722;2023-05-17T07:25:03;8.45;;;1.88;;
64795;SDS011;51229;51.980;6.722;2023-05-17T07:27:29;9.50;;;1.95;;
64795;SDS011;51229;51.980;6.722;2023-05-17T07:29:55;6.95;;;1.60;;
64795;SDS011;51229;51.980;6.722;2023-05-17T07:32:20;10.48;;;2.10;;
64795;SDS011;51229;51.980;6.722;2023-05-17T07:34:46;9.07;;;2.28;;
64795;SDS011;51229;51.980;6.722;2023-05-17T07:37:11;10.13;;;1.73;;
64795;SDS011;51229;51.980;6.722;2023-05-17T07:39:37;7.75;;;1.88;;
64795;SDS011;51229;51.980;6.722;2023-05-17T07:42:03;8.45;;;2.17;;
64795;SDS011;51229;51.980;6.722;2023-05-17T07:44:28;7.05;;;1.30;;
64795;SDS011;51229;51.980;6.722;2023-05-17T07:46:54;7.32;;;1.60;;
64795;SDS011;51229;51.980;6.722;2023-05-17T07:49:21;5.40;;;2.28;;
64795;SDS011;51229;51.980;6.722;2023-05-17T07:51:47;6.53;;;1.45;;
64795;SDS011;51229;51.980;6.722;2023-05-17T07:54:23;6.13;;;1.80;;
64795;SDS011;51229;51.980;6.722;2023-05-17T07:56:51;9.18;;;1.40;;
64795;SDS011;51229;51.980;6.722;2023-05-17T07:59:19;6.82;;;2.00;;
64795;SDS011;51229;51.980;6.722;2023-05-17T08:01:48;6.05;;;1.50;;
64795;SDS011;51229;51.980;6.722;2023-05-17T08:04:14;5.40;;;1.75;;
64795;SDS011;51229;51.980;6.722;2023-05-17T08:06:41;6.82;;;1.60;;
64795;SDS011;51229;51.980;6.722;2023-05-17T08:09:07;5.22;;;1.88;;
64795;SDS011;51229;51.980;6.722;2023-05-17T08:11:33;5.97;;;1.27;;
64795;SDS011;51229;51.980;6.722;2023-05-17T08:13:59;6.07;;;1.48;;
64795;SDS011;51229;51.980;6.722;2023-05-17T08:16:25;3.92;;;1.30;;
64795;SDS011;51229;51.980;6.722;2023-05-17T08:18:51;5.60;;;1.73;;
64795;SDS011;51229;51.980;6.722;2023-05-17T08:21:16;7.40;;;1.98;;
64795;SDS011;51229;51.980;6.722;2023-05-17T08:23:42;5.60;;;1.70;;
64795;SDS011;51229;51.980;6.722;2023-05-17T08:26:08;7.20;;;1.40;;
64795;SDS011;51229;51.980;6.722;2023-05-17T08:28:34;8.75;;;1.90;;
64795;SDS011;51229;51.980;6.722;2023-05-17T08:31:00;6.22;;;1.50;;
64795;SDS011;51229;51.980;6.722;2023-05-17T08:33:28;5.55;;;1.50;;
64795;SDS011;51229;51.980;6.722;2023-05-17T08:35:53;5.78;;;1.60;;
64795;SDS011;51229;51.980;6.722;2023-05-17T08:38:20;4.45;;;1.40;;
64795;SDS011;51229;51.980;6.722;2023-05-17T08:40:52;6.53;;;1.50;;
64795;SDS011;51229;51.980;6.722;2023-05-17T08:45:45;6.20;;;1.80;;
64795;SDS011;51229;51.980;6.722;2023-05-17T08:48:13;5.93;;;1.30;;
64795;SDS011;51229;51.980;6.722;2023-05-17T08:50:41;7.97;;;1.58;;
64795;SDS011;51229;51.980;6.722;2023-05-17T08:53:09;7.10;;;1.38;;
64795;SDS011;51229;51.980;6.722;2023-05-17T08:55:35;5.30;;;1.45;;
64795;SDS011;51229;51.980;6.722;2023-05-17T08:58:02;5.65;;;1.48;;
64795;SDS011;51229;51.980;6.722;2023-05-17T09:00:29;7.40;;;1.50;;
64795;SDS011;51229;51.980;6.722;2023-05-17T09:02:58;5.10;;;1.70;;
64795;SDS011;51229;51.980;6.722;2023-05-17T09:05:27;7.10;;;1.83;;
64795;SDS011;51229;51.980;6.722;2023-05-17T09:07:52;5.47;;;1.60;;
64795;SDS011;51229;51.980;6.722;2023-05-17T09:10:20;8.55;;;2.00;;
64795;SDS011;51229;51.980;6.722;2023-05-17T09:12:45;4.93;;;1.33;;
64795;SDS011;51229;51.980;6.722;2023-05-17T09:15:19;3.35;;;1.38;;
64795;SDS011;51229;51.980;6.722;2023-05-17T09:17:54;8.50;;;1.73;;
64795;SDS011;51229;51.980;6.722;2023-05-17T09:20:22;5.57;;;2.05;;
64795;SDS011;51229;51.980;6.722;2023-05-17T09:22:58;5.32;;;1.60;;
64795;SDS011;51229;51.980;6.722;2023-05-17T09:25:24;7.00;;;1.42;;
64795;SDS011;51229;51.980;6.722;2023-05-17T09:27:52;3.95;;;1.40;;
64795;SDS011;51229;51.980;6.722;2023-05-17T09:30:19;6.03;;;1.60;;
64795;SDS011;51229;51.980;6.722;2023-05-17T09:32:51;4.43;;;1.30;;
64795;SDS011;51229;51.980;6.722;2023-05-17T09:35:17;10.73;;;1.50;;
64795;SDS011;51229;51.980;6.722;2023-05-17T09:37:43;5.18;;;1.30;;
64795;SDS011;51229;51.980;6.722;2023-05-17T09:40:20;5.38;;;1.30;;
64795;SDS011;51229;51.980;6.722;2023-05-17T09:42:51;7.57;;;2.22;;
64795;SDS011;51229;51.980;6.722;2023-05-17T09:45:21;9.05;;;1.70;;
64795;SDS011;51229;51.980;6.722;2023-05-17T09:47:48;5.07;;;1.73;;
64795;SDS011;51229;51.980;6.722;2023-05-17T09:50:17;4.57;;;1.58;;
64795;SDS011;51229;51.980;6.722;2023-05-17T09:52:43;5.57;;;1.95;;
64795;SDS011;51229;51.980;6.722;2023-05-17T09:55:10;7.22;;;1.95;;
64795;SDS011;51229;51.980;6.722;2023-05-17T09:57:37;9.57;;;1.85;;
64795;SDS011;51229;51.980;6.722;2023-05-17T10:00:04;6.20;;;1.50;;
64795;SDS011;51229;51.980;6.722;2023-05-17T10:02:38;7.65;;;1.50;;
64795;SDS011;51229;51.980;6.722;2023-05-17T10:05:07;7.78;;;1.70;;
64795;SDS011;51229;51.980;6.722;2023-05-17T10:07:35;6.53;;;1.60;;
64795;SDS011;51229;51.980;6.722;2023-05-17T10:10:02;5.63;;;1.48;;
64795;SDS011;51229;51.980;6.722;2023-05-17T10:12:29;7.13;;;1.58;;
64795;SDS011;51229;51.980;6.722;2023-05-17T10:14:59;7.72;;;1.58;;
64795;SDS011;51229;51.980;6.722;2023-05-17T10:17:26;4.35;;;1.30;;
64795;SDS011;51229;51.980;6.722;2023-05-17T10:19:53;6.47;;;1.77;;
64795;SDS011;51229;51.980;6.722;2023-05-17T10:22:21;5.43;;;1.67;;
64795;SDS011;51229;51.980;6.722;2023-05-17T10:24:47;5.63;;;1.75;;
64795;SDS011;51229;51.980;6.722;2023-05-17T10:27:15;4.85;;;1.83;;
64795;SDS011;51229;51.980;6.722;2023-05-17T10:29:41;8.40;;;1.60;;
64795;SDS011;51229;51.980;6.722;2023-05-17T10:32:08;5.20;;;1.80;;
64795;SDS011;51229;51.980;6.722;2023-05-17T10:34:38;6.18;;;1.63;;
64795;SDS011;51229;51.980;6.722;2023-05-17T10:37:04;6.20;;;1.48;;
64795;SDS011;51229;51.980;6.722;2023-05-17T10:39:31;5.10;;;1.48;;
64795;SDS011;51229;51.980;6.722;2023-05-17T10:41:59;6.35;;;1.60;;
64795;SDS011;51229;51.980;6.722;2023-05-17T10:44:29;5.40;;;1.75;;
64795;SDS011;51229;51.980;6.722;2023-05-17T10:46:57;6.03;;;1.70;;
64795;SDS011;51229;51.980;6.722;2023-05-17T10:49:31;4.43;;;1.40;;
64795;SDS011;51229;51.980;6.722;2023-05-17T10:54:46;3.83;;;1.30;;
64795;SDS011;51229;51.980;6.722;2023-05-17T10:57:21;4.72;;;1.48;;
64795;SDS011;51229;51.980;6.722;2023-05-17T10:59:58;7.82;;;1.55;;
64795;SDS011;51229;51.980;6.722;2023-05-17T11:02:26;6.65;;;1.60;;
64795;SDS011;51229;51.980;6.722;2023-05-17T11:04:53;6.60;;;2.00;;
64795;SDS011;51229;51.980;6.722;2023-05-17T11:07:24;5.85;;;1.63;;
64795;SDS011;51229;51.980;6.722;2023-05-17T11:12:31;6.45;;;1.70;;
64795;SDS011;51229;51.980;6.722;2023-05-17T11:15:00;7.03;;;1.90;;
64795;SDS011;51229;51.980;6.722;2023-05-17T11:17:45;7.38;;;1.70;;
64795;SDS011;51229;51.980;6.722;2023-05-17T11:22:56;7.63;;;1.85;;
64795;SDS011;51229;51.980;6.722;2023-05-17T11:25:26;6.05;;;1.98;;
64795;SDS011;51229;51.980;6.722;2023-05-17T11:27:53;5.70;;;1.77;;
64795;SDS011;51229;51.980;6.722;2023-05-17T11:30:28;4.78;;;1.65;;
64795;SDS011;51229;51.980;6.722;2023-05-17T11:33:02;6.35;;;1.70;;
64795;SDS011;51229;51.980;6.722;2023-05-17T11:35:33;8.70;;;1.83;;
64795;SDS011;51229;51.980;6.722;2023-05-17T11:38:13;4.78;;;1.70;;
64795;SDS011;51229;51.980;6.722;2023-05-17T11:43:10;7.82;;;2.42;;
64795;SDS011;51229;51.980;6.722;2023-05-17T11:45:47;8.18;;;1.80;;
64795;SDS011;51229;51.980;6.722;2023-05-17T11:48:14;8.52;;;2.10;;
64795;SDS011;51229;51.980;6.722;2023-05-17T11:50:42;8.55;;;2.50;;
64795;SDS011;51229;51.980;6.722;2023-05-17T11:53:10;6.75;;;1.92;;
64795;SDS011;51229;51.980;6.722;2023-05-17T11:55:37;8.93;;;2.00;;
64795;SDS011;51229;51.980;6.722;2023-05-17T11:58:05;8.80;;;2.15;;
64795;SDS011;51229;51.980;6.722;2023-05-17T12:00:32;8.10;;;2.10;;
64795;SDS011;51229;51.980;6.722;2023-05-17T12:02:57;10.30;;;1.83;;
64795;SDS011;51229;51.980;6.722;2023-05-17T12:05:38;7.22;;;1.88;;
64795;SDS011;51229;51.980;6.722;2023-05-17T12:08:04;6.35;;;1.48;;
64795;SDS011;51229;51.980;6.722;2023-05-17T12:10:29;10.82;;;2.53;;
64795;SDS011;51229;51.980;6.722;2023-05-17T12:12:57;7.78;;;2.42;;
64795;SDS011;51229;51.980;6.722;2023-05-17T12:15:22;8.25;;;2.30;;
64795;SDS011;51229;51.980;6.722;2023-05-17T12:17:49;7.57;;;2.42;;
64795;SDS011;51229;51.980;6.722;2023-05-17T12:20:17;10.95;;;2.70;;
64795;SDS011;51229;51.980;6.722;2023-05-17T12:22:52;8.27;;;2.17;;
64795;SDS011;51229;51.980;6.722;2023-05-17T12:25:19;6.75;;;1.88;;
64795;SDS011;51229;51.980;6.722;2023-05-17T12:27:49;7.35;;;2.20;;
64795;SDS011;51229;51.980;6.722;2023-05-17T12:30:15;8.35;;;2.40;;
64795;SDS011;51229;51.980;6.722;2023-05-17T12:32:41;7.10;;;2.28;;
64795;SDS011;51229;51.980;6.722;2023-05-17T12:35:07;6.78;;;1.80;;
64795;SDS011;51229;51.980;6.722;2023-05-17T12:37:34;7.10;;;2.00;;
64795;SDS011;51229;51.980;6.722;2023-05-17T12:40:00;7.70;;;2.20;;
64795;SDS011;51229;51.980;6.722;2023-05-17T12:42:29;8.18;;;2.22;;
64795;SDS011;51229;51.980;6.722;2023-05-17T12:44:57;9.90;;;2.28;;
64795;SDS011;51229;51.980;6.722;2023-05-17T12:47:30;7.40;;;1.90;;
64795;SDS011;51229;51.980;6.722;2023-05-17T12:49:56;8.07;;;2.03;;
64795;SDS011;51229;51.980;6.722;2023-05-17T12:52:25;9.20;;;1.95;;
64795;SDS011;51229;51.980;6.722;2023-05-17T12:55:02;6.15;;;1.98;;
64795;SDS011;51229;51.980;6.722;2023-05-17T12:57:28;8.45;;;2.10;;
64795;SDS011;51229;51.980;6.722;2023-05-17T12:59:54;8.80;;;2.30;;
64795;SDS011;51229;51.980;6.722;2023-05-17T13:02:20;8.88;;;2.05;;
64795;SDS011;51229;51.980;6.722;2023-05-17T13:04:46;6.35;;;2.08;;
64795;SDS011;51229;51.980;6.722;2023-05-17T13:07:19;8.43;;;2.40;;
64795;SDS011;51229;51.980;6.722;2023-05-17T13:09:46;7.88;;;2.20;;
64795;SDS011;51229;51.980;6.722;2023-05-17T13:12:18;5.22;;;1.90;;
64795;SDS011;51229;51.980;6.722;2023-05-17T13:17:15;6.20;;;1.98;;
64795;SDS011;51229;51.980;6.722;2023-05-17T13:19:41;9.55;;;2.10;;
64795;SDS011;51229;51.980;6.722;2023-05-17T13:22:07;5.25;;;1.98;;
64795;SDS011;51229;51.980;6.722;2023-05-17T13:24:33;9.45;;;2.40;;
64795;SDS011;51229;51.980;6.722;2023-05-17T13:27:00;9.60;;;2.00;;
64795;SDS011;51229;51.980;6.722;2023-05-17T13:29:27;7.50;;;2.13;;
64795;SDS011;51229;51.980;6.722;2023-05-17T13:31:53;7.10;;;2.17;;
64795;SDS011;51229;51.980;6.722;2023-05-17T13:34:18;8.02;;;2.25;;
64795;SDS011;51229;51.980;6.722;2023-05-17T13:36:47;9.20;;;2.30;;
64795;SDS011;51229;51.980;6.722;2023-05-17T13:39:13;6.43;;;1.95;;
64795;SDS011;51229;51.980;6.722;2023-05-17T13:41:39;10.60;;;2.70;;
64795;SDS011;51229;51.980;6.722;2023-05-17T13:44:05;7.75;;;2.08;;
64795;SDS011;51229;51.980;6.722;2023-05-17T13:46:31;8.90;;;2.40;;
64795;SDS011;51229;51.980;6.722;2023-05-17T13:48:57;7.97;;;2.13;;
64795;SDS011;51229;51.980;6.722;2023-05-17T13:51:23;9.38;;;2.47;;
64795;SDS011;51229;51.980;6.722;2023-05-17T13:53:52;8.20;;;2.50;;
64795;SDS011;51229;51.980;6.722;2023-05-17T13:56:17;7.95;;;2.10;;
64795;SDS011;51229;51.980;6.722;2023-05-17T13:58:43;8.45;;;2.65;;
64795;SDS011;51229;51.980;6.722;2023-05-17T14:01:09;7.80;;;2.30;;
64795;SDS011;51229;51.980;6.722;2023-05-17T14:03:35;7.18;;;2.42;;
64795;SDS011;51229;51.980;6.722;2023-05-17T14:06:02;8.45;;;2.10;;
64795;SDS011;51229;51.980;6.722;2023-05-17T14:08:28;9.98;;;2.25;;
64795;SDS011;51229;51.980;6.722;2023-05-17T14:10:54;6.00;;;1.75;;
64795;SDS011;51229;51.980;6.722;2023-05-17T14:13:19;10.60;;;2.40;;
64795;SDS011;51229;51.980;6.722;2023-05-17T14:15:45;7.10;;;2.28;;
64795;SDS011;51229;51.980;6.722;2023-05-17T14:18:11;8.15;;;2.42;;
64795;SDS011;51229;51.980;6.722;2023-05-17T14:20:36;7.30;;;2.28;;
64795;SDS011;51229;51.980;6.722;2023-05-17T14:23:02;8.98;;;2.90;;
64795;SDS011;51229;51.980;6.722;2023-05-17T14:25:28;7.43;;;2.55;;
64795;SDS011;51229;51.980;6.722;2023-05-17T14:27:54;8.05;;;2.25;;
64795;SDS011;51229;51.980;6.722;2023-05-17T14:30:20;9.18;;;2.30;;
64795;SDS011;51229;51.980;6.722;2023-05-17T14:32:46;9.77;;;2.22;;
64795;SDS011;51229;51.980;6.722;2023-05-17T14:35:11;10.35;;;2.60;;
64795;SDS011;51229;51.980;6.722;2023-05-17T14:37:38;8.23;;;2.33;;
64795;SDS011;51229;51.980;6.722;2023-05-17T14:40:04;8.32;;;2.60;;
64795;SDS011;51229;51.980;6.722;2023-05-17T14:42:30;6.38;;;2.95;;
64795;SDS011;51229;51.980;6.722;2023-05-17T14:44:56;6.72;;;2.58;;
64795;SDS011;51229;51.980;6.722;2023-05-17T14:47:22;10.13;;;2.20;;
64795;SDS011;51229;51.980;6.722;2023-05-17T14:49:48;7.45;;;2.72;;
64795;SDS011;51229;51.980;6.722;2023-05-17T14:52:13;6.97;;;2.22;;
64795;SDS011;51229;51.980;6.722;2023-05-17T14:54:39;11.23;;;2.35;;
64795;SDS011;51229;51.980;6.722;2023-05-17T14:57:05;8.40;;;2.58;;
64795;SDS011;51229;51.980;6.722;2023-05-17T14:59:32;7.43;;;2.55;;
64795;SDS011;51229;51.980;6.722;2023-05-17T15:01:58;8.45;;;2.35;;
64795;SDS011;51229;51.980;6.722;2023-05-17T15:04:24;8.00;;;2.13;;
64795;SDS011;51229;51.980;6.722;2023-05-17T15:06:50;7.95;;;2.65;;
64795;SDS011;51229;51.980;6.722;2023-05-17T15:09:16;10.10;;;2.47;;